Time;durP1;ratioP1;P1;durP2;ratioP2;P2;SDS_P1;SDS_P2;PMS_P1;PMS_P2;Temp;Humidity;BMP_temperature;BMP_pressure;BME280_temperature;BME280_humidity;BME280_pressure;Samples;Min_cycle;Max_cycle;Signal;HPM_P1;HPM_P2
2022/03/19 00:01:30;;;;;;;87.37;52.13;;;;;;;;;;4994961;28;20239;-61
2022/03/19 00:03:58;;;;;;;84.03;52.17;;;;;;;;;;5000049;28;20211;-63
2022/03/19 00:06:26;;;;;;;81.10;49.83;;;;;;;;;;4987220;28;21180;-63
2022/03/19 00:08:56;;;;;;;83.47;51.50;;;;;;;;;;4994719;28;20250;-64
2022/03/19 00:11:24;;;;;;;87.43;51.90;;;;;;;;;;4987197;28;20211;-61
2022/03/19 00:13:51;;;;;;;83.00;50.03;;;;;;;;;;4982058;28;20199;-61
2022/03/19 00:16:18;;;;;;;80.23;49.07;;;;;;;;;;4993857;28;20248;-62
2022/03/19 00:18:46;;;;;;;81.37;51.03;;;;;;;;;;5002766;28;20232;-62
2022/03/19 00:21:14;;;;;;;91.37;53.40;;;;;;;;;;4982008;28;20222;-61
2022/03/19 00:23:42;;;;;;;91.87;52.97;;;;;;;;;;4990727;28;20212;-61
2022/03/19 00:26:10;;;;;;;84.53;52.63;;;;;;;;;;4982953;28;20251;-61
2022/03/19 00:28:38;;;;;;;93.97;54.83;;;;;;;;;;4998937;28;20583;-60
2022/03/19 00:31:06;;;;;;;87.50;53.10;;;;;;;;;;5000749;28;20204;-61
2022/03/19 00:33:33;;;;;;;92.77;54.30;;;;;;;;;;4998584;28;20291;-63
2022/03/19 00:36:01;;;;;;;88.30;53.97;;;;;;;;;;4984862;28;20207;-61
2022/03/19 00:38:29;;;;;;;93.17;55.07;;;;;;;;;;4992424;28;20212;-61
2022/03/19 00:40:56;;;;;;;89.10;53.50;;;;;;;;;;4991739;28;20267;-61
2022/03/19 00:43:23;;;;;;;89.40;55.57;;;;;;;;;;4997891;28;20872;-61
2022/03/19 00:45:51;;;;;;;95.60;54.93;;;;;;;;;;4990226;28;20227;-61
2022/03/19 00:48:18;;;;;;;95.73;55.30;;;;;;;;;;4977550;28;20204;-62
2022/03/19 00:50:46;;;;;;;92.13;54.90;;;;;;;;;;4985965;28;20716;-62
2022/03/19 00:53:13;;;;;;;98.17;55.90;;;;;;;;;;5004677;28;20202;-62
2022/03/19 00:55:40;;;;;;;90.50;53.17;;;;;;;;;;4999541;28;20220;-62
2022/03/19 00:58:08;;;;;;;92.57;52.63;;;;;;;;;;4998978;28;20207;-61
2022/03/19 01:00:35;;;;;;;91.73;54.00;;;;;;;;;;4996800;28;20414;-62
2022/03/19 01:03:03;;;;;;;92.77;54.73;;;;;;;;;;4997829;28;20493;-62
2022/03/19 01:05:30;;;;;;;87.93;53.53;;;;;;;;;;4999641;28;20222;-61
2022/03/19 01:07:58;;;;;;;92.47;54.43;;;;;;;;;;5004091;28;20211;-61
2022/03/19 01:10:29;;;;;;;91.63;53.37;;;;;;;;;;4989556;28;20235;-61
2022/03/19 01:12:57;;;;;;;90.23;53.27;;;;;;;;;;4990378;28;20207;-60
2022/03/19 01:15:25;;;;;;;91.80;52.97;;;;;;;;;;4986892;28;20214;-62
2022/03/19 01:17:53;;;;;;;84.73;52.20;;;;;;;;;;4992737;28;20278;-61
2022/03/19 01:20:20;;;;;;;91.57;52.20;;;;;;;;;;5001064;28;20246;-62
2022/03/19 01:22:49;;;;;;;82.77;49.10;;;;;;;;;;4987652;28;20257;-61
2022/03/19 01:25:17;;;;;;;81.27;49.63;;;;;;;;;;4992046;28;20733;-61
2022/03/19 01:27:45;;;;;;;85.20;49.97;;;;;;;;;;4988567;28;20223;-62
2022/03/19 01:30:14;;;;;;;81.53;49.73;;;;;;;;;;4967918;28;20285;-62
2022/03/19 01:32:42;;;;;;;78.17;48.63;;;;;;;;;;4993314;28;20368;-62
2022/03/19 01:35:10;;;;;;;78.53;47.97;;;;;;;;;;4972850;28;20207;-62
2022/03/19 01:37:38;;;;;;;77.67;48.03;;;;;;;;;;4991039;28;20614;-63
2022/03/19 01:40:06;;;;;;;78.77;47.20;;;;;;;;;;4993142;28;20241;-61
2022/03/19 01:42:35;;;;;;;77.67;46.97;;;;;;;;;;4993123;28;20207;-63
2022/03/19 01:45:04;;;;;;;79.57;47.20;;;;;;;;;;4981040;28;20252;-61
2022/03/19 01:47:33;;;;;;;73.67;46.37;;;;;;;;;;4992158;28;20348;-62
2022/03/19 01:50:00;;;;;;;76.43;47.57;;;;;;;;;;4992929;28;20231;-63
2022/03/19 01:52:31;;;;;;;78.37;46.77;;;;;;;;;;4987051;28;20212;-62
2022/03/19 01:55:00;;;;;;;79.70;47.83;;;;;;;;;;4990969;28;20211;-61
2022/03/19 01:57:38;;;;;;;76.13;48.57;;;;;;;;;;4995947;28;20558;-61
2022/03/19 02:00:07;;;;;;;77.50;46.90;;;;;;;;;;4990724;28;20853;-63
2022/03/19 02:02:34;;;;;;;81.70;48.47;;;;;;;;;;4991767;28;20220;-62
2022/03/19 02:05:03;;;;;;;79.23;47.80;;;;;;;;;;4993138;28;20668;-63
2022/03/19 02:07:31;;;;;;;78.27;46.97;;;;;;;;;;4992851;28;20231;-62
2022/03/19 02:09:59;;;;;;;79.47;47.53;;;;;;;;;;4976278;28;20227;-60
2022/03/19 02:12:27;;;;;;;82.50;47.70;;;;;;;;;;4991054;28;20215;-61
2022/03/19 02:14:57;;;;;;;82.13;48.03;;;;;;;;;;5001746;28;20207;-62
2022/03/19 02:17:26;;;;;;;81.40;49.07;;;;;;;;;;4989068;28;20215;-64
2022/03/19 02:19:55;;;;;;;76.60;46.10;;;;;;;;;;4975416;28;20227;-64
2022/03/19 02:22:27;;;;;;;79.10;47.17;;;;;;;;;;4988021;28;20203;-61
2022/03/19 02:27:41;;;;;;;72.03;44.70;;;;;;;;;;4995765;28;20223;-62
2022/03/19 02:30:10;;;;;;;74.87;44.90;;;;;;;;;;5003810;28;20250;-61
2022/03/19 02:32:42;;;;;;;74.20;44.87;;;;;;;;;;5000488;28;20218;-62
2022/03/19 02:35:10;;;;;;;76.57;45.53;;;;;;;;;;4987906;28;20200;-62
2022/03/19 02:37:43;;;;;;;72.53;44.53;;;;;;;;;;4997994;28;20215;-60
2022/03/19 02:40:11;;;;;;;75.83;45.00;;;;;;;;;;4999707;28;20231;-63
2022/03/19 02:42:43;;;;;;;75.63;45.80;;;;;;;;;;4991531;28;20207;-62
2022/03/19 02:45:10;;;;;;;72.50;44.37;;;;;;;;;;4993635;28;20675;-61
2022/03/19 02:47:56;;;;;;;69.20;44.40;;;;;;;;;;4995520;28;20744;-62
2022/03/19 02:50:25;;;;;;;73.80;45.30;;;;;;;;;;4995486;28;20231;-63
2022/03/19 02:52:53;;;;;;;72.63;44.80;;;;;;;;;;4999663;28;20203;-61
2022/03/19 02:55:20;;;;;;;69.90;43.97;;;;;;;;;;4992077;28;20207;-61
2022/03/19 02:57:47;;;;;;;73.10;45.67;;;;;;;;;;4973299;28;20881;-61
2022/03/19 03:00:15;;;;;;;72.70;42.30;;;;;;;;;;4995985;28;20227;-61
2022/03/19 03:02:43;;;;;;;71.87;44.13;;;;;;;;;;4991109;28;20244;-62
2022/03/19 03:05:12;;;;;;;70.07;41.53;;;;;;;;;;4995926;28;24959;-61
2022/03/19 03:07:39;;;;;;;70.23;42.47;;;;;;;;;;4989154;28;20255;-63
2022/03/19 03:10:07;;;;;;;63.73;40.30;;;;;;;;;;4984539;28;20278;-62
2022/03/19 03:12:35;;;;;;;67.20;40.20;;;;;;;;;;4977436;28;20285;-61
2022/03/19 03:15:03;;;;;;;72.17;40.80;;;;;;;;;;4997932;28;20203;-62
2022/03/19 03:17:30;;;;;;;68.47;41.67;;;;;;;;;;4976919;28;20222;-62
2022/03/19 03:19:58;;;;;;;66.20;41.03;;;;;;;;;;4995088;28;21773;-62
2022/03/19 03:22:25;;;;;;;64.13;41.10;;;;;;;;;;4977268;28;20211;-61
2022/03/19 03:24:53;;;;;;;67.60;40.93;;;;;;;;;;4996716;28;20277;-61
2022/03/19 03:27:21;;;;;;;64.03;40.40;;;;;;;;;;4994230;28;20250;-63
2022/03/19 03:29:48;;;;;;;66.67;40.63;;;;;;;;;;4997874;28;20247;-60
2022/03/19 03:32:16;;;;;;;70.60;40.97;;;;;;;;;;4976076;28;20200;-62
2022/03/19 03:34:43;;;;;;;63.37;37.97;;;;;;;;;;4978516;28;20195;-61
2022/03/19 03:37:10;;;;;;;67.60;40.20;;;;;;;;;;4993264;28;20207;-61
2022/03/19 03:39:38;;;;;;;62.77;40.60;;;;;;;;;;4979455;28;20234;-61
2022/03/19 03:42:06;;;;;;;65.87;40.43;;;;;;;;;;4990170;28;20334;-63
2022/03/19 03:44:33;;;;;;;66.00;40.27;;;;;;;;;;4989696;28;20267;-63
2022/03/19 03:47:02;;;;;;;61.47;38.67;;;;;;;;;;4999933;28;20581;-62
2022/03/19 03:49:29;;;;;;;64.17;38.57;;;;;;;;;;4963009;28;20220;-62
2022/03/19 03:51:58;;;;;;;61.50;38.57;;;;;;;;;;4985302;28;20210;-61
2022/03/19 03:54:26;;;;;;;61.93;38.93;;;;;;;;;;4971908;28;20199;-61
2022/03/19 03:56:53;;;;;;;60.00;38.80;;;;;;;;;;4972019;28;20215;-61
2022/03/19 03:59:23;;;;;;;64.80;39.20;;;;;;;;;;4991397;28;20239;-61
2022/03/19 04:01:50;;;;;;;62.17;38.73;;;;;;;;;;4992622;28;20669;-63
2022/03/19 04:04:18;;;;;;;58.30;37.30;;;;;;;;;;4993294;28;20912;-62
2022/03/19 04:06:45;;;;;;;65.00;39.40;;;;;;;;;;4967809;28;20227;-61
2022/03/19 04:09:13;;;;;;;59.40;37.17;;;;;;;;;;4998336;28;20219;-62
2022/03/19 04:11:40;;;;;;;62.37;37.20;;;;;;;;;;4985999;28;20207;-62
2022/03/19 04:14:08;;;;;;;59.70;36.13;;;;;;;;;;4990901;28;20237;-63
2022/03/19 04:16:37;;;;;;;60.30;37.10;;;;;;;;;;4973072;28;20216;-61
2022/03/19 04:19:04;;;;;;;59.70;35.90;;;;;;;;;;4986994;28;20232;-61
2022/03/19 04:21:32;;;;;;;59.87;36.37;;;;;;;;;;4995295;28;20226;-63
2022/03/19 04:23:59;;;;;;;64.40;36.97;;;;;;;;;;4984125;28;20283;-63
2022/03/19 04:26:27;;;;;;;56.30;36.03;;;;;;;;;;4985244;28;20235;-63
2022/03/19 04:28:54;;;;;;;59.13;36.67;;;;;;;;;;4993213;28;20231;-62
2022/03/19 04:31:22;;;;;;;61.30;36.13;;;;;;;;;;4995567;28;20208;-61
2022/03/19 04:33:50;;;;;;;61.83;36.97;;;;;;;;;;4990940;28;20647;-61
2022/03/19 04:36:30;;;;;;;58.50;35.10;;;;;;;;;;4988809;28;20196;-61
2022/03/19 04:38:58;;;;;;;56.43;35.67;;;;;;;;;;4977437;28;20225;-60
2022/03/19 04:41:26;;;;;;;58.77;35.87;;;;;;;;;;4977358;28;20211;-62
2022/03/19 04:43:53;;;;;;;57.87;35.87;;;;;;;;;;4996415;28;20627;-63
2022/03/19 04:46:20;;;;;;;56.03;34.90;;;;;;;;;;4989196;28;20238;-63
2022/03/19 04:48:48;;;;;;;54.97;33.77;;;;;;;;;;4990143;28;20293;-61
2022/03/19 04:51:18;;;;;;;54.73;33.67;;;;;;;;;;4975865;28;20274;-61
2022/03/19 04:53:56;;;;;;;54.63;33.63;;;;;;;;;;4979269;28;20203;-60
2022/03/19 04:56:24;;;;;;;51.90;33.73;;;;;;;;;;4990888;28;20273;-61
2022/03/19 04:58:53;;;;;;;47.83;32.07;;;;;;;;;;4985177;28;20293;-61
2022/03/19 05:01:21;;;;;;;53.77;33.43;;;;;;;;;;4981475;28;20334;-61
2022/03/19 05:03:49;;;;;;;50.30;32.20;;;;;;;;;;4987892;28;20269;-61
2022/03/19 05:06:16;;;;;;;62.20;39.27;;;;;;;;;;4989636;28;20212;-61
2022/03/19 05:08:43;;;;;;;75.00;41.47;;;;;;;;;;4980940;28;20230;-60
2022/03/19 05:11:14;;;;;;;95.37;50.10;;;;;;;;;;4967462;28;20208;-60
2022/03/19 05:13:43;;;;;;;86.13;46.17;;;;;;;;;;4999270;28;20212;-60
2022/03/19 05:16:14;;;;;;;60.40;37.67;;;;;;;;;;4989191;28;20844;-61
2022/03/19 05:18:41;;;;;;;62.43;40.93;;;;;;;;;;4993042;28;20362;-62
2022/03/19 05:21:09;;;;;;;50.60;34.13;;;;;;;;;;4970409;28;20290;-62
2022/03/19 05:23:36;;;;;;;50.73;30.73;;;;;;;;;;4987938;28;20696;-60
2022/03/19 05:26:04;;;;;;;50.07;30.73;;;;;;;;;;4992773;28;20211;-61
2022/03/19 05:28:31;;;;;;;49.83;31.10;;;;;;;;;;4974458;28;20227;-61
2022/03/19 05:31:19;;;;;;;49.27;31.37;;;;;;;;;;4987866;28;20203;-61
2022/03/19 05:36:32;;;;;;;47.70;29.47;;;;;;;;;;4985273;28;20219;-61
2022/03/19 05:39:00;;;;;;;46.90;29.83;;;;;;;;;;4986623;28;20874;-62
2022/03/19 05:41:28;;;;;;;46.70;29.53;;;;;;;;;;4992498;28;20217;-60
2022/03/19 05:43:55;;;;;;;46.17;30.10;;;;;;;;;;4972078;28;20284;-60
2022/03/19 05:46:26;;;;;;;43.33;28.13;;;;;;;;;;4973430;28;20293;-61
2022/03/19 05:48:53;;;;;;;45.67;28.60;;;;;;;;;;4964939;28;20232;-61
2022/03/19 05:51:22;;;;;;;44.77;28.73;;;;;;;;;;4988329;28;20632;-62
2022/03/19 05:53:49;;;;;;;48.53;29.40;;;;;;;;;;4988927;28;20222;-61
2022/03/19 05:56:17;;;;;;;42.53;27.70;;;;;;;;;;4973155;28;20212;-62
2022/03/19 05:58:45;;;;;;;44.60;27.23;;;;;;;;;;4992979;28;20226;-61
2022/03/19 06:01:12;;;;;;;40.80;27.63;;;;;;;;;;4964578;28;20944;-61
2022/03/19 06:03:40;;;;;;;41.43;27.80;;;;;;;;;;4986786;28;20221;-62
2022/03/19 06:06:07;;;;;;;40.93;26.40;;;;;;;;;;4972942;28;20215;-62
2022/03/19 06:08:35;;;;;;;43.97;27.73;;;;;;;;;;4987268;28;20260;-62
2022/03/19 06:11:02;;;;;;;41.97;27.13;;;;;;;;;;4992016;28;20215;-61
2022/03/19 06:13:29;;;;;;;42.60;26.63;;;;;;;;;;4995505;28;20216;-60
2022/03/19 06:15:57;;;;;;;41.07;27.57;;;;;;;;;;4975553;28;20215;-60
2022/03/19 06:18:24;;;;;;;41.63;26.07;;;;;;;;;;4970683;28;20204;-62
2022/03/19 06:20:52;;;;;;;42.57;27.27;;;;;;;;;;4991734;28;20246;-61
2022/03/19 06:23:19;;;;;;;40.90;26.83;;;;;;;;;;4989178;28;20211;-62
2022/03/19 06:25:47;;;;;;;40.90;26.20;;;;;;;;;;4989980;28;20277;-61
2022/03/19 06:28:14;;;;;;;40.40;26.97;;;;;;;;;;4970241;28;23503;-62
2022/03/19 06:30:42;;;;;;;43.40;26.33;;;;;;;;;;4986951;28;21876;-63
2022/03/19 06:33:11;;;;;;;40.17;26.03;;;;;;;;;;4974233;28;20693;-62
2022/03/19 06:38:27;;;;;;;41.00;26.20;;;;;;;;;;5003321;28;20211;-62
2022/03/19 06:40:54;;;;;;;41.07;26.57;;;;;;;;;;4992887;28;20211;-62
2022/03/19 06:43:22;;;;;;;38.80;25.33;;;;;;;;;;4989927;28;20270;-62
2022/03/19 06:45:49;;;;;;;37.10;24.83;;;;;;;;;;4968527;28;20215;-62
2022/03/19 06:48:17;;;;;;;41.30;26.33;;;;;;;;;;4987501;28;20230;-63
2022/03/19 06:50:44;;;;;;;40.87;26.20;;;;;;;;;;4987833;28;21347;-62
2022/03/19 06:53:11;;;;;;;43.27;26.37;;;;;;;;;;4984154;28;20200;-61
2022/03/19 06:55:39;;;;;;;37.23;25.53;;;;;;;;;;4972279;28;20288;-63
2022/03/19 06:58:07;;;;;;;39.53;25.77;;;;;;;;;;4974083;28;20207;-61
2022/03/19 07:00:35;;;;;;;37.57;25.00;;;;;;;;;;4969417;28;20247;-62
2022/03/19 07:03:03;;;;;;;42.93;25.13;;;;;;;;;;4971713;28;20200;-62
2022/03/19 07:05:31;;;;;;;38.40;25.67;;;;;;;;;;4973928;28;20233;-62
2022/03/19 07:07:59;;;;;;;38.73;24.90;;;;;;;;;;4972848;28;22437;-61
2022/03/19 07:10:27;;;;;;;35.50;23.73;;;;;;;;;;4957959;28;21865;-61
2022/03/19 07:12:58;;;;;;;38.50;24.53;;;;;;;;;;4980202;28;20247;-62
2022/03/19 07:15:28;;;;;;;36.63;24.17;;;;;;;;;;4976488;28;20751;-62
2022/03/19 07:18:00;;;;;;;37.40;24.60;;;;;;;;;;4976025;28;20689;-62
2022/03/19 07:20:29;;;;;;;36.97;24.80;;;;;;;;;;4974179;28;20311;-61
2022/03/19 07:22:58;;;;;;;36.73;25.00;;;;;;;;;;4991543;28;20273;-61
2022/03/19 07:25:28;;;;;;;38.73;24.57;;;;;;;;;;4974808;28;20214;-63
2022/03/19 07:27:57;;;;;;;36.10;24.33;;;;;;;;;;4989876;28;20764;-61
2022/03/19 07:30:25;;;;;;;39.03;25.57;;;;;;;;;;4978733;28;20230;-62
2022/03/19 07:32:52;;;;;;;38.20;23.93;;;;;;;;;;4985616;28;20216;-64
2022/03/19 07:35:20;;;;;;;38.57;25.40;;;;;;;;;;4975790;28;20654;-62
2022/03/19 07:37:48;;;;;;;38.30;23.90;;;;;;;;;;4990693;28;20207;-62
2022/03/19 07:41:45;;;;;;;35.23;24.43;;;;;;;;;;4993920;28;20234;-62
2022/03/19 07:43:08;;;;;;;38.90;24.80;;;;;;;;;;4993700;28;20222;-59
2022/03/19 07:45:36;;;;;;;35.40;24.00;;;;;;;;;;4962719;28;20234;-60
2022/03/19 07:48:03;;;;;;;36.67;24.80;;;;;;;;;;4955814;28;20227;-61
2022/03/19 07:50:51;;;;;;;35.67;24.83;;;;;;;;;;4967076;28;20211;-62
2022/03/19 07:53:19;;;;;;;38.57;25.53;;;;;;;;;;4978112;28;20258;-59
2022/03/19 07:55:47;;;;;;;36.93;25.80;;;;;;;;;;4954267;28;20226;-62
2022/03/19 07:58:17;;;;;;;37.77;25.90;;;;;;;;;;4965523;28;20776;-61
2022/03/19 08:00:45;;;;;;;36.90;26.23;;;;;;;;;;4972088;28;20211;-60
2022/03/19 08:03:13;;;;;;;36.83;26.30;;;;;;;;;;4958686;28;20211;-60
2022/03/19 08:05:43;;;;;;;39.00;25.67;;;;;;;;;;4976239;28;20308;-61
2022/03/19 08:08:12;;;;;;;41.43;26.97;;;;;;;;;;4983363;28;20235;-60
2022/03/19 08:10:40;;;;;;;38.60;25.50;;;;;;;;;;4973561;28;20203;-61
2022/03/19 08:13:08;;;;;;;39.63;27.17;;;;;;;;;;4979287;28;20200;-61
2022/03/19 08:15:38;;;;;;;36.60;25.33;;;;;;;;;;4976625;28;20208;-62
2022/03/19 08:18:07;;;;;;;38.90;26.13;;;;;;;;;;4978933;28;20218;-61
2022/03/19 08:20:34;;;;;;;40.70;26.20;;;;;;;;;;4964943;28;20228;-61
2022/03/19 08:23:02;;;;;;;38.30;26.80;;;;;;;;;;4949551;28;20273;-62
2022/03/19 08:25:29;;;;;;;38.97;25.50;;;;;;;;;;4966449;28;20203;-61
2022/03/19 08:27:57;;;;;;;39.80;26.17;;;;;;;;;;4968893;28;21229;-61
2022/03/19 08:30:33;;;;;;;38.30;24.83;;;;;;;;;;4972132;28;20239;-61
2022/03/19 08:33:01;;;;;;;37.10;24.93;;;;;;;;;;4977805;28;20227;-63
2022/03/19 08:35:29;;;;;;;40.70;24.97;;;;;;;;;;4990018;28;20666;-63
2022/03/19 08:40:43;;;;;;;41.93;28.03;;;;;;;;;;4990337;28;20354;-62
2022/03/19 08:43:11;;;;;;;42.43;28.07;;;;;;;;;;4993958;28;20859;-62
2022/03/19 08:45:42;;;;;;;38.37;25.93;;;;;;;;;;4996654;28;20618;-60
2022/03/19 08:48:10;;;;;;;41.27;26.13;;;;;;;;;;4984578;28;20708;-62
2022/03/19 08:50:38;;;;;;;37.60;24.63;;;;;;;;;;4982955;28;20283;-61
2022/03/19 08:53:05;;;;;;;35.37;24.60;;;;;;;;;;4979226;28;23763;-62
2022/03/19 08:55:32;;;;;;;35.10;25.00;;;;;;;;;;5001020;28;20203;-61
2022/03/19 08:58:00;;;;;;;35.97;24.43;;;;;;;;;;4985257;28;20231;-61
2022/03/19 09:00:27;;;;;;;37.40;25.37;;;;;;;;;;4995075;28;20227;-61
2022/03/19 09:02:58;;;;;;;36.13;24.20;;;;;;;;;;4989898;28;20212;-62
2022/03/19 09:05:27;;;;;;;33.00;24.03;;;;;;;;;;4983908;28;20212;-59
2022/03/19 09:07:54;;;;;;;33.37;24.10;;;;;;;;;;4985231;28;20315;-60
2022/03/19 09:10:22;;;;;;;36.50;24.13;;;;;;;;;;4981008;28;20223;-60
2022/03/19 09:12:50;;;;;;;35.00;24.13;;;;;;;;;;4988553;28;20202;-60
2022/03/19 09:15:17;;;;;;;36.87;25.10;;;;;;;;;;4981793;28;23363;-61
2022/03/19 09:17:45;;;;;;;38.77;25.17;;;;;;;;;;5001221;28;20269;-60
2022/03/19 09:20:12;;;;;;;35.63;23.57;;;;;;;;;;5000055;28;20227;-59
2022/03/19 09:22:39;;;;;;;35.37;24.87;;;;;;;;;;4992923;28;20217;-61
2022/03/19 09:25:07;;;;;;;35.73;25.07;;;;;;;;;;4976585;28;20210;-60
2022/03/19 09:27:35;;;;;;;36.87;24.77;;;;;;;;;;4977931;28;20694;-60
2022/03/19 09:30:02;;;;;;;34.50;23.43;;;;;;;;;;4993607;28;20234;-61
2022/03/19 09:32:29;;;;;;;33.73;23.83;;;;;;;;;;4992369;28;20208;-61
2022/03/19 09:34:58;;;;;;;32.70;23.23;;;;;;;;;;4982543;28;21473;-60
2022/03/19 09:37:26;;;;;;;35.00;23.50;;;;;;;;;;4988911;28;21017;-60
2022/03/19 09:39:53;;;;;;;33.97;23.67;;;;;;;;;;4997169;28;20588;-60
2022/03/19 09:42:22;;;;;;;36.00;25.13;;;;;;;;;;4994435;28;20215;-61
2022/03/19 09:44:49;;;;;;;36.63;25.90;;;;;;;;;;4992804;28;20264;-60
2022/03/19 09:47:17;;;;;;;34.67;23.70;;;;;;;;;;4990035;28;20221;-60
2022/03/19 09:49:45;;;;;;;36.87;25.33;;;;;;;;;;4992326;28;20239;-62
2022/03/19 09:52:13;;;;;;;33.77;24.57;;;;;;;;;;4982063;28;20626;-62
2022/03/19 09:54:40;;;;;;;35.33;24.20;;;;;;;;;;4982792;28;20309;-61
2022/03/19 09:57:08;;;;;;;32.57;22.67;;;;;;;;;;4992604;28;20208;-61
2022/03/19 09:59:36;;;;;;;32.40;23.33;;;;;;;;;;4999332;28;20230;-62
2022/03/19 10:02:10;;;;;;;36.63;24.87;;;;;;;;;;4996206;28;20243;-63
2022/03/19 10:04:40;;;;;;;36.63;25.20;;;;;;;;;;4991054;28;20666;-61
2022/03/19 10:09:56;;;;;;;36.27;25.07;;;;;;;;;;4994166;28;20233;-61
2022/03/19 10:12:29;;;;;;;35.53;25.27;;;;;;;;;;4990263;28;20248;-61
2022/03/19 10:14:57;;;;;;;35.27;25.10;;;;;;;;;;4983070;28;20250;-61
2022/03/19 10:17:35;;;;;;;33.90;25.27;;;;;;;;;;4976866;28;20204;-63
2022/03/19 10:20:13;;;;;;;35.33;23.40;;;;;;;;;;4998031;28;20234;-63
2022/03/19 10:22:42;;;;;;;35.70;24.70;;;;;;;;;;5000607;28;20207;-61
2022/03/19 10:25:11;;;;;;;40.40;26.60;;;;;;;;;;4991334;28;20215;-61
2022/03/19 10:27:40;;;;;;;37.13;25.30;;;;;;;;;;4985966;28;20210;-61
2022/03/19 10:30:19;;;;;;;37.83;27.17;;;;;;;;;;5000533;28;20215;-62
2022/03/19 10:32:49;;;;;;;39.50;25.80;;;;;;;;;;4993462;28;20639;-61
2022/03/19 10:35:27;;;;;;;35.53;24.33;;;;;;;;;;4994434;28;20204;-61
2022/03/19 10:37:55;;;;;;;33.97;25.30;;;;;;;;;;4997579;28;20274;-64
2022/03/19 10:40:22;;;;;;;34.43;25.20;;;;;;;;;;4981956;28;20228;-61
2022/03/19 10:42:52;;;;;;;40.73;25.30;;;;;;;;;;4980765;28;20207;-63
2022/03/19 10:45:21;;;;;;;37.37;25.83;;;;;;;;;;4995228;28;20675;-62
2022/03/19 10:47:48;;;;;;;33.47;25.10;;;;;;;;;;5000075;28;20207;-62
2022/03/19 10:50:20;;;;;;;33.63;24.53;;;;;;;;;;4980991;28;20227;-62
2022/03/19 10:52:49;;;;;;;33.93;24.40;;;;;;;;;;4981861;28;20227;-62
2022/03/19 10:55:16;;;;;;;37.47;25.60;;;;;;;;;;4984324;28;20679;-61
2022/03/19 10:57:45;;;;;;;35.47;24.33;;;;;;;;;;4997078;28;20215;-62
2022/03/19 11:00:13;;;;;;;35.13;24.83;;;;;;;;;;4991365;28;20591;-59
2022/03/19 11:02:44;;;;;;;31.33;22.83;;;;;;;;;;4992639;28;20450;-62
2022/03/19 11:05:12;;;;;;;36.93;25.40;;;;;;;;;;4987475;28;20257;-62
2022/03/19 11:07:42;;;;;;;34.03;24.43;;;;;;;;;;4997496;28;20673;-61
2022/03/19 11:10:10;;;;;;;31.77;23.93;;;;;;;;;;4981529;28;20305;-60
2022/03/19 11:12:40;;;;;;;34.83;24.80;;;;;;;;;;4982813;28;20229;-63
2022/03/19 11:15:09;;;;;;;31.00;21.57;;;;;;;;;;4992235;28;20578;-63
2022/03/19 11:17:38;;;;;;;28.67;22.73;;;;;;;;;;4992908;28;20208;-63
2022/03/19 11:20:15;;;;;;;29.07;21.67;;;;;;;;;;4981869;28;20231;-62
2022/03/19 11:22:47;;;;;;;29.47;20.97;;;;;;;;;;4980212;28;20230;-61
2022/03/19 11:25:16;;;;;;;28.37;21.40;;;;;;;;;;4992792;28;20207;-60
2022/03/19 11:27:46;;;;;;;28.60;20.23;;;;;;;;;;5002536;28;20265;-62
2022/03/19 11:30:17;;;;;;;24.87;17.90;;;;;;;;;;4978715;28;20232;-60
2022/03/19 11:33:20;;;;;;;26.70;20.13;;;;;;;;;;4988470;28;20208;-63
2022/03/19 11:36:07;;;;;;;27.60;19.83;;;;;;;;;;4920282;29;20204;-62
2022/03/19 11:38:42;;;;;;;25.23;19.37;;;;;;;;;;4974018;28;20307;-63
2022/03/19 11:41:17;;;;;;;24.37;19.00;;;;;;;;;;4995922;28;20206;-61
2022/03/19 11:43:44;;;;;;;25.03;18.53;;;;;;;;;;4993865;28;20573;-61
2022/03/19 11:46:12;;;;;;;23.23;17.60;;;;;;;;;;4997654;28;20291;-62
2022/03/19 11:48:47;;;;;;;23.80;16.27;;;;;;;;;;4977109;28;20720;-63
2022/03/19 11:51:24;;;;;;;21.27;16.23;;;;;;;;;;4976379;28;20253;-64
2022/03/19 11:54:09;;;;;;;24.50;15.73;;;;;;;;;;4971933;28;20211;-61
2022/03/19 11:56:40;;;;;;;25.53;17.60;;;;;;;;;;4984928;28;20306;-61
2022/03/19 11:59:13;;;;;;;23.97;17.37;;;;;;;;;;4996497;28;20238;-61
2022/03/19 12:02:00;;;;;;;22.23;17.07;;;;;;;;;;4999483;28;20218;-62
2022/03/19 12:04:41;;;;;;;20.17;16.37;;;;;;;;;;4991459;28;20207;-60
2022/03/19 12:07:08;;;;;;;25.00;16.80;;;;;;;;;;4997459;28;20212;-62
2022/03/19 12:09:39;;;;;;;22.63;16.27;;;;;;;;;;4996050;28;20268;-60
2022/03/19 12:12:19;;;;;;;27.03;16.70;;;;;;;;;;4999108;28;20199;-63
2022/03/19 12:14:46;;;;;;;22.43;15.27;;;;;;;;;;5011229;28;20200;-61
2022/03/19 12:17:21;;;;;;;21.13;16.03;;;;;;;;;;4990757;28;20226;-62
2022/03/19 12:19:51;;;;;;;23.47;16.50;;;;;;;;;;4992469;28;20321;-60
2022/03/19 12:22:34;;;;;;;20.83;15.67;;;;;;;;;;5008400;28;20674;-62
2022/03/19 12:25:08;;;;;;;23.57;17.73;;;;;;;;;;4990382;28;20207;-61
2022/03/19 12:27:36;;;;;;;20.50;15.60;;;;;;;;;;4981249;28;20208;-61
2022/03/19 12:30:04;;;;;;;24.90;17.23;;;;;;;;;;4976111;28;20228;-61
2022/03/19 12:32:44;;;;;;;23.97;17.67;;;;;;;;;;5001195;28;20204;-62
2022/03/19 12:35:11;;;;;;;22.47;17.07;;;;;;;;;;5004369;28;20210;-61
2022/03/19 12:37:49;;;;;;;22.87;16.30;;;;;;;;;;5004733;28;20255;-62
2022/03/19 12:40:21;;;;;;;22.70;17.27;;;;;;;;;;4994127;28;20290;-61
2022/03/19 12:42:58;;;;;;;22.87;17.70;;;;;;;;;;5008570;28;20204;-64
2022/03/19 12:45:38;;;;;;;24.37;18.70;;;;;;;;;;4999721;28;20207;-62
2022/03/19 12:48:12;;;;;;;25.73;18.20;;;;;;;;;;4999888;28;20339;-63
2022/03/19 12:50:53;;;;;;;23.93;17.27;;;;;;;;;;4999805;28;20200;-63
2022/03/19 12:53:41;;;;;;;23.97;15.93;;;;;;;;;;4999773;28;20234;-62
2022/03/19 12:56:16;;;;;;;23.70;18.10;;;;;;;;;;4987492;28;20212;-63
2022/03/19 12:58:44;;;;;;;23.13;17.07;;;;;;;;;;4984429;28;20869;-63
2022/03/19 13:01:13;;;;;;;24.00;18.57;;;;;;;;;;4964803;28;20606;-61
2022/03/19 13:03:41;;;;;;;24.93;18.33;;;;;;;;;;4976305;28;20222;-61
2022/03/19 13:06:09;;;;;;;26.67;17.70;;;;;;;;;;4986991;28;20206;-62
2022/03/19 13:08:44;;;;;;;23.53;18.23;;;;;;;;;;4990768;28;20231;-61
2022/03/19 13:11:15;;;;;;;25.20;17.47;;;;;;;;;;4977699;28;21691;-62
2022/03/19 13:13:43;;;;;;;22.37;17.47;;;;;;;;;;5001474;28;20207;-61
2022/03/19 13:16:11;;;;;;;26.53;18.20;;;;;;;;;;4996480;28;20203;-61
2022/03/19 13:18:42;;;;;;;24.73;17.77;;;;;;;;;;4996326;28;20227;-59
2022/03/19 13:21:11;;;;;;;21.80;16.67;;;;;;;;;;5000077;28;20199;-61
2022/03/19 13:23:40;;;;;;;21.80;16.77;;;;;;;;;;5000249;28;20256;-63
2022/03/19 13:26:11;;;;;;;22.03;16.53;;;;;;;;;;4996654;28;20204;-62
2022/03/19 13:28:58;;;;;;;22.10;17.37;;;;;;;;;;4989258;28;20235;-61
2022/03/19 13:31:26;;;;;;;19.80;15.37;;;;;;;;;;5000916;28;20208;-62
2022/03/19 13:33:59;;;;;;;22.40;16.03;;;;;;;;;;5000826;28;20203;-62
2022/03/19 13:36:28;;;;;;;20.03;15.93;;;;;;;;;;4982656;28;20199;-61
2022/03/19 13:38:56;;;;;;;23.00;15.63;;;;;;;;;;5008559;28;20227;-61
2022/03/19 13:41:24;;;;;;;23.70;16.60;;;;;;;;;;5001056;28;20218;-61
2022/03/19 13:43:51;;;;;;;22.87;17.17;;;;;;;;;;5000963;28;20774;-61
2022/03/19 13:46:23;;;;;;;24.43;17.07;;;;;;;;;;4992411;28;20227;-61
2022/03/19 13:49:10;;;;;;;22.07;16.20;;;;;;;;;;4997055;28;20236;-61
2022/03/19 13:51:44;;;;;;;25.73;15.17;;;;;;;;;;4992543;28;23014;-62
2022/03/19 13:54:11;;;;;;;19.87;14.63;;;;;;;;;;4987706;28;20208;-60
2022/03/19 13:56:55;;;;;;;33.23;16.63;;;;;;;;;;4990248;28;20661;-61
2022/03/19 13:59:31;;;;;;;18.27;14.87;;;;;;;;;;4993615;28;20235;-61
2022/03/19 14:02:03;;;;;;;21.77;14.97;;;;;;;;;;4994732;28;20207;-62
2022/03/19 14:04:34;;;;;;;18.03;14.53;;;;;;;;;;4992947;28;20243;-64
2022/03/19 14:07:02;;;;;;;19.63;13.70;;;;;;;;;;4988692;28;20207;-61
2022/03/19 14:09:29;;;;;;;21.53;14.70;;;;;;;;;;4977494;28;20231;-61
2022/03/19 14:11:56;;;;;;;17.53;13.20;;;;;;;;;;4980925;28;20199;-60
2022/03/19 14:14:24;;;;;;;19.42;15.35;;;;;;;;;;4963850;28;20450;-60
2022/03/19 14:16:59;;;;;;;18.73;14.23;;;;;;;;;;4977552;28;20212;-61
2022/03/19 14:19:27;;;;;;;20.20;13.30;;;;;;;;;;4985226;28;20245;-60
2022/03/19 14:21:55;;;;;;;18.93;12.63;;;;;;;;;;4993158;28;20223;-61
2022/03/19 14:24:24;;;;;;;17.10;12.90;;;;;;;;;;4969727;28;20206;-62
2022/03/19 14:26:56;;;;;;;16.13;11.97;;;;;;;;;;4979287;28;20695;-63
2022/03/19 14:29:24;;;;;;;19.60;12.73;;;;;;;;;;4952889;28;20231;-60
2022/03/19 14:31:52;;;;;;;17.03;12.37;;;;;;;;;;4950868;28;20196;-61
2022/03/19 14:34:20;;;;;;;16.97;12.57;;;;;;;;;;4973216;28;20517;-63
2022/03/19 14:36:48;;;;;;;16.67;11.13;;;;;;;;;;4975863;28;20212;-60
2022/03/19 14:39:15;;;;;;;16.33;12.23;;;;;;;;;;4976406;28;20231;-62
2022/03/19 14:41:43;;;;;;;14.73;11.37;;;;;;;;;;4973853;28;20211;-60
2022/03/19 14:44:10;;;;;;;15.30;11.43;;;;;;;;;;4983387;28;20656;-60